Al Lith, Saudi Arabia
Current Conditions -  °F | °C
As of 5:00 AM on Tuesday 21 Oct 2014 (Local Time) from OEBA Reporting Station
Clear Clear  
Wind Chill: 64°   Ceiling: Unl
Heat Index: 64°   Visibility: 6mi
Dew Point: 59°   Wind: 7mph
Humidity: 83%   Direction: 310°NW
Pressure: 30.15"   Gusts: NA
Location:  20.15°N, 40.27°E
Report Text: OEBA 210200Z 31006KT CAVOK 18/15 Q1021 NOSIG
Loading
Personal Weather Stations






























Interactive Weather Map
Tropical Storm Tracking
New forecast layout! Learn more

10-Day Weather Forecast

Advertisements
Track Severe Weather on mobile